sensor_id;sensor_type;location;lat;lon;timestamp;pressure;altitude;pressure_sealevel;temperature;humidity
36248;BME280;22287;50.824;5.644;2023-01-15T00:01:56;99319.63;;;8.20;74.77
36248;BME280;22287;50.824;5.644;2023-01-15T00:04:22;99331.75;;;8.61;74.31
36248;BME280;22287;50.824;5.644;2023-01-15T00:06:49;99321.16;;;8.33;74.19
36248;BME280;22287;50.824;5.644;2023-01-15T00:09:16;99320.53;;;9.01;72.31
36248;BME280;22287;50.824;5.644;2023-01-15T00:11:43;99313.03;;;8.42;75.13
36248;BME280;22287;50.824;5.644;2023-01-15T00:14:10;99319.38;;;8.86;71.73
36248;BME280;22287;50.824;5.644;2023-01-15T00:16:37;99320.25;;;8.42;74.36
36248;BME280;22287;50.824;5.644;2023-01-15T00:19:09;99315.09;;;8.48;74.16
36248;BME280;22287;50.824;5.644;2023-01-15T00:21:37;99304.50;;;7.92;76.08
36248;BME280;22287;50.824;5.644;2023-01-15T00:24:04;99302.06;;;8.71;73.46
36248;BME280;22287;50.824;5.644;2023-01-15T00:26:51;99296.53;;;8.72;72.41
36248;BME280;22287;50.824;5.644;2023-01-15T00:29:37;99305.19;;;8.84;72.16
36248;BME280;22287;50.824;5.644;2023-01-15T00:32:05;99295.97;;;8.69;73.74
36248;BME280;22287;50.824;5.644;2023-01-15T00:34:34;99292.72;;;9.01;70.90
36248;BME280;22287;50.824;5.644;2023-01-15T00:37:01;99287.81;;;8.96;71.72
36248;BME280;22287;50.824;5.644;2023-01-15T00:39:31;99288.97;;;8.94;71.05
36248;BME280;22287;50.824;5.644;2023-01-15T00:42:00;99286.03;;;8.87;71.50
36248;BME280;22287;50.824;5.644;2023-01-15T00:44:27;99268.41;;;9.10;70.98
36248;BME280;22287;50.824;5.644;2023-01-15T00:46:54;99271.41;;;9.07;71.67
36248;BME280;22287;50.824;5.644;2023-01-15T00:49:21;99269.44;;;8.92;72.65
36248;BME280;22287;50.824;5.644;2023-01-15T00:51:49;99270.03;;;8.85;72.38
36248;BME280;22287;50.824;5.644;2023-01-15T00:54:16;99279.06;;;8.59;73.51
36248;BME280;22287;50.824;5.644;2023-01-15T00:56:43;99276.22;;;8.78;73.71
36248;BME280;22287;50.824;5.644;2023-01-15T00:59:11;99283.50;;;8.68;72.77
36248;BME280;22287;50.824;5.644;2023-01-15T01:01:38;99293.03;;;9.15;71.68
36248;BME280;22287;50.824;5.644;2023-01-15T01:04:05;99306.56;;;9.23;71.56
36248;BME280;22287;50.824;5.644;2023-01-15T01:06:33;99310.78;;;9.26;71.83
36248;BME280;22287;50.824;5.644;2023-01-15T01:09:00;99312.06;;;9.14;71.81
36248;BME280;22287;50.824;5.644;2023-01-15T01:11:29;99302.59;;;8.92;73.25
36248;BME280;22287;50.824;5.644;2023-01-15T01:14:00;99312.53;;;8.92;73.25
36248;BME280;22287;50.824;5.644;2023-01-15T01:16:34;99310.53;;;8.58;74.75
36248;BME280;22287;50.824;5.644;2023-01-15T01:19:07;99313.72;;;8.17;75.49
36248;BME280;22287;50.824;5.644;2023-01-15T01:21:37;99307.78;;;7.77;75.70
36248;BME280;22287;50.824;5.644;2023-01-15T01:24:05;99305.06;;;7.86;76.62
36248;BME280;22287;50.824;5.644;2023-01-15T01:26:32;99302.78;;;8.46;72.44
36248;BME280;22287;50.824;5.644;2023-01-15T01:28:59;99297.41;;;7.91;76.16
36248;BME280;22287;50.824;5.644;2023-01-15T01:31:26;99300.25;;;8.17;75.61
36248;BME280;22287;50.824;5.644;2023-01-15T01:33:55;99312.69;;;8.27;75.35
36248;BME280;22287;50.824;5.644;2023-01-15T01:36:30;99332.94;;;7.85;75.26
36248;BME280;22287;50.824;5.644;2023-01-15T01:38:58;99339.69;;;8.26;75.29
36248;BME280;22287;50.824;5.644;2023-01-15T01:41:26;99347.84;;;7.80;75.09
36248;BME280;22287;50.824;5.644;2023-01-15T01:44:01;99339.00;;;8.24;73.37
36248;BME280;22287;50.824;5.644;2023-01-15T01:46:30;99340.34;;;7.74;76.09
36248;BME280;22287;50.824;5.644;2023-01-15T01:49:07;99339.56;;;8.00;74.89
36248;BME280;22287;50.824;5.644;2023-01-15T01:51:40;99327.09;;;7.99;73.87
36248;BME280;22287;50.824;5.644;2023-01-15T01:54:10;99329.69;;;7.82;74.89
36248;BME280;22287;50.824;5.644;2023-01-15T01:56:39;99323.81;;;7.68;74.76
36248;BME280;22287;50.824;5.644;2023-01-15T01:59:07;99328.91;;;8.08;74.26
36248;BME280;22287;50.824;5.644;2023-01-15T02:01:48;99327.28;;;7.88;75.75
36248;BME280;22287;50.824;5.644;2023-01-15T02:04:30;99326.88;;;7.37;76.85
36248;BME280;22287;50.824;5.644;2023-01-15T02:06:59;99321.53;;;7.74;76.11
36248;BME280;22287;50.824;5.644;2023-01-15T02:09:26;99318.41;;;7.78;76.05
36248;BME280;22287;50.824;5.644;2023-01-15T02:11:57;99321.84;;;7.61;76.41
36248;BME280;22287;50.824;5.644;2023-01-15T02:14:34;99328.88;;;7.81;74.21
36248;BME280;22287;50.824;5.644;2023-01-15T02:17:32;99321.31;;;7.94;75.10
36248;BME280;22287;50.824;5.644;2023-01-15T02:20:21;99322.16;;;7.95;75.32
36248;BME280;22287;50.824;5.644;2023-01-15T02:28:26;99303.16;;;7.69;74.28
36248;BME280;22287;50.824;5.644;2023-01-15T02:31:17;99308.97;;;7.64;74.25
36248;BME280;22287;50.824;5.644;2023-01-15T02:34:05;99307.25;;;7.73;74.26
36248;BME280;22287;50.824;5.644;2023-01-15T02:36:40;99300.59;;;8.04;74.18
36248;BME280;22287;50.824;5.644;2023-01-15T02:39:18;99291.16;;;8.18;73.26
36248;BME280;22287;50.824;5.644;2023-01-15T02:41:49;99290.75;;;7.95;74.19
36248;BME280;22287;50.824;5.644;2023-01-15T02:44:19;99297.81;;;7.96;75.35
36248;BME280;22287;50.824;5.644;2023-01-15T02:46:53;99307.59;;;7.51;75.81
36248;BME280;22287;50.824;5.644;2023-01-15T02:49:23;99316.03;;;7.65;76.08
36248;BME280;22287;50.824;5.644;2023-01-15T02:52:00;99305.50;;;7.35;76.40
36248;BME280;22287;50.824;5.644;2023-01-15T02:54:35;99305.91;;;7.40;77.87
36248;BME280;22287;50.824;5.644;2023-01-15T02:57:05;99301.63;;;7.57;76.34
36248;BME280;22287;50.824;5.644;2023-01-15T02:59:38;99295.56;;;7.92;74.85
36248;BME280;22287;50.824;5.644;2023-01-15T03:02:11;99294.97;;;7.98;74.56
36248;BME280;22287;50.824;5.644;2023-01-15T03:04:47;99301.63;;;7.94;75.36
36248;BME280;22287;50.824;5.644;2023-01-15T03:09:45;99301.69;;;8.11;74.33
36248;BME280;22287;50.824;5.644;2023-01-15T03:12:31;99303.56;;;8.01;74.53
36248;BME280;22287;50.824;5.644;2023-01-15T03:15:23;99298.84;;;7.86;74.33
36248;BME280;22287;50.824;5.644;2023-01-15T03:18:14;99297.78;;;7.69;75.67
36248;BME280;22287;50.824;5.644;2023-01-15T03:20:50;99296.03;;;7.78;75.25
36248;BME280;22287;50.824;5.644;2023-01-15T03:23:18;99302.69;;;7.74;74.74
36248;BME280;22287;50.824;5.644;2023-01-15T03:25:48;99308.06;;;7.83;74.98
36248;BME280;22287;50.824;5.644;2023-01-15T03:28:26;99297.94;;;7.67;74.90
36248;BME280;22287;50.824;5.644;2023-01-15T03:30:53;99300.06;;;7.64;75.86
36248;BME280;22287;50.824;5.644;2023-01-15T03:33:20;99302.84;;;7.72;74.52
36248;BME280;22287;50.824;5.644;2023-01-15T03:35:55;99308.69;;;7.67;75.50
36248;BME280;22287;50.824;5.644;2023-01-15T03:38:35;99303.94;;;7.33;76.42
36248;BME280;22287;50.824;5.644;2023-01-15T03:43:49;99298.28;;;7.45;76.09
36248;BME280;22287;50.824;5.644;2023-01-15T03:49:23;99301.38;;;7.87;75.39
36248;BME280;22287;50.824;5.644;2023-01-15T03:54:49;99298.31;;;7.26;76.69
36248;BME280;22287;50.824;5.644;2023-01-15T03:57:35;99307.53;;;7.70;75.83
36248;BME280;22287;50.824;5.644;2023-01-15T04:00:12;99300.13;;;7.45;76.53
36248;BME280;22287;50.824;5.644;2023-01-15T04:02:42;99308.34;;;7.34;77.23
36248;BME280;22287;50.824;5.644;2023-01-15T04:05:13;99305.91;;;7.50;77.17
36248;BME280;22287;50.824;5.644;2023-01-15T04:07:45;99303.22;;;7.50;77.08
36248;BME280;22287;50.824;5.644;2023-01-15T04:10:14;99311.06;;;7.15;76.64
36248;BME280;22287;50.824;5.644;2023-01-15T04:12:41;99309.75;;;7.38;77.25
36248;BME280;22287;50.824;5.644;2023-01-15T04:15:23;99307.38;;;7.16;77.43
36248;BME280;22287;50.824;5.644;2023-01-15T04:17:50;99310.75;;;7.27;76.10
36248;BME280;22287;50.824;5.644;2023-01-15T04:20:17;99304.75;;;7.52;75.49
36248;BME280;22287;50.824;5.644;2023-01-15T04:22:45;99306.19;;;7.56;75.61
36248;BME280;22287;50.824;5.644;2023-01-15T04:25:11;99311.00;;;7.53;76.46
36248;BME280;22287;50.824;5.644;2023-01-15T04:27:38;99312.59;;;7.27;77.49
36248;BME280;22287;50.824;5.644;2023-01-15T04:30:05;99307.22;;;7.27;77.60
36248;BME280;22287;50.824;5.644;2023-01-15T04:32:32;99313.44;;;7.37;76.96
36248;BME280;22287;50.824;5.644;2023-01-15T04:34:59;99318.81;;;7.37;77.28
36248;BME280;22287;50.824;5.644;2023-01-15T04:37:26;99330.22;;;7.58;76.36
36248;BME280;22287;50.824;5.644;2023-01-15T04:39:53;99325.44;;;7.33;76.62
36248;BME280;22287;50.824;5.644;2023-01-15T04:42:20;99321.44;;;7.56;76.72
36248;BME280;22287;50.824;5.644;2023-01-15T04:45:05;99326.53;;;7.59;76.47
36248;BME280;22287;50.824;5.644;2023-01-15T04:47:33;99328.03;;;7.81;75.41
36248;BME280;22287;50.824;5.644;2023-01-15T04:50:00;99327.88;;;7.82;74.77
36248;BME280;22287;50.824;5.644;2023-01-15T04:52:26;99336.81;;;8.10;73.15
36248;BME280;22287;50.824;5.644;2023-01-15T04:54:54;99332.63;;;7.98;74.39
36248;BME280;22287;50.824;5.644;2023-01-15T04:57:21;99321.91;;;7.88;75.71
36248;BME280;22287;50.824;5.644;2023-01-15T04:59:50;99324.03;;;7.38;76.54
36248;BME280;22287;50.824;5.644;2023-01-15T05:02:17;99328.88;;;7.06;78.20
36248;BME280;22287;50.824;5.644;2023-01-15T05:04:44;99325.03;;;7.18;78.65
36248;BME280;22287;50.824;5.644;2023-01-15T05:07:11;99327.72;;;7.28;77.55
36248;BME280;22287;50.824;5.644;2023-01-15T05:09:38;99322.88;;;7.41;76.72
36248;BME280;22287;50.824;5.644;2023-01-15T05:12:05;99320.81;;;7.25;77.21
36248;BME280;22287;50.824;5.644;2023-01-15T05:14:32;99311.59;;;7.37;76.04
36248;BME280;22287;50.824;5.644;2023-01-15T05:16:58;99308.66;;;7.12;77.11
36248;BME280;22287;50.824;5.644;2023-01-15T05:19:25;99301.47;;;7.12;77.67
36248;BME280;22287;50.824;5.644;2023-01-15T05:21:52;99308.53;;;7.03;77.63
36248;BME280;22287;50.824;5.644;2023-01-15T05:24:19;99304.84;;;7.04;78.50
36248;BME280;22287;50.824;5.644;2023-01-15T05:26:45;99313.63;;;6.78;78.02
36248;BME280;22287;50.824;5.644;2023-01-15T05:29:12;99316.44;;;7.05;77.93
36248;BME280;22287;50.824;5.644;2023-01-15T05:31:40;99312.47;;;6.99;78.19
36248;BME280;22287;50.824;5.644;2023-01-15T05:34:08;99304.72;;;6.77;78.73
36248;BME280;22287;50.824;5.644;2023-01-15T05:36:35;99297.22;;;6.90;78.36
36248;BME280;22287;50.824;5.644;2023-01-15T05:39:03;99310.94;;;6.87;79.37
36248;BME280;22287;50.824;5.644;2023-01-15T05:41:30;99308.81;;;6.81;79.39
36248;BME280;22287;50.824;5.644;2023-01-15T05:46:48;99307.38;;;7.16;77.82
36248;BME280;22287;50.824;5.644;2023-01-15T05:49:18;99306.75;;;7.41;76.72
36248;BME280;22287;50.824;5.644;2023-01-15T05:51:46;99301.88;;;6.88;77.76
36248;BME280;22287;50.824;5.644;2023-01-15T05:54:15;99305.94;;;7.31;76.10
36248;BME280;22287;50.824;5.644;2023-01-15T05:56:43;99294.09;;;7.04;77.80
36248;BME280;22287;50.824;5.644;2023-01-15T05:59:12;99309.22;;;7.05;78.11
36248;BME280;22287;50.824;5.644;2023-01-15T06:01:39;99306.00;;;6.92;78.51
36248;BME280;22287;50.824;5.644;2023-01-15T06:04:07;99304.72;;;7.06;78.84
36248;BME280;22287;50.824;5.644;2023-01-15T06:06:34;99311.75;;;7.07;78.53
36248;BME280;22287;50.824;5.644;2023-01-15T06:09:03;99312.03;;;6.66;78.78
36248;BME280;22287;50.824;5.644;2023-01-15T06:11:30;99320.97;;;6.85;79.19
36248;BME280;22287;50.824;5.644;2023-01-15T06:13:57;99326.06;;;6.60;79.46
36248;BME280;22287;50.824;5.644;2023-01-15T06:16:25;99333.94;;;6.61;80.08
36248;BME280;22287;50.824;5.644;2023-01-15T06:18:52;99344.44;;;7.02;78.05
36248;BME280;22287;50.824;5.644;2023-01-15T06:21:19;99333.41;;;6.86;78.96
36248;BME280;22287;50.824;5.644;2023-01-15T06:23:46;99347.81;;;6.85;78.57
36248;BME280;22287;50.824;5.644;2023-01-15T06:26:17;99342.16;;;6.60;79.86
36248;BME280;22287;50.824;5.644;2023-01-15T06:28:44;99335.19;;;6.47;79.80
36248;BME280;22287;50.824;5.644;2023-01-15T06:31:14;99342.44;;;6.66;79.63
36248;BME280;22287;50.824;5.644;2023-01-15T06:33:41;99345.41;;;6.82;78.71
36248;BME280;22287;50.824;5.644;2023-01-15T06:36:10;99332.56;;;6.76;78.79
36248;BME280;22287;50.824;5.644;2023-01-15T06:38:39;99346.25;;;7.02;76.76
36248;BME280;22287;50.824;5.644;2023-01-15T06:41:09;99346.13;;;6.84;78.22
36248;BME280;22287;50.824;5.644;2023-01-15T06:43:56;99347.50;;;6.69;78.30
36248;BME280;22287;50.824;5.644;2023-01-15T06:46:48;99336.53;;;7.01;76.49
36248;BME280;22287;50.824;5.644;2023-01-15T06:49:35;99344.97;;;6.77;78.15
36248;BME280;22287;50.824;5.644;2023-01-15T06:52:03;99347.22;;;6.53;77.92
36248;BME280;22287;50.824;5.644;2023-01-15T06:54:30;99343.56;;;6.64;77.12
36248;BME280;22287;50.824;5.644;2023-01-15T06:56:56;99349.03;;;6.53;77.62
36248;BME280;22287;50.824;5.644;2023-01-15T06:59:23;99365.34;;;6.70;77.91
36248;BME280;22287;50.824;5.644;2023-01-15T07:01:50;99383.34;;;6.39;78.58
36248;BME280;22287;50.824;5.644;2023-01-15T07:04:17;99408.78;;;6.55;78.96
36248;BME280;22287;50.824;5.644;2023-01-15T07:06:44;99407.16;;;6.82;78.10
36248;BME280;22287;50.824;5.644;2023-01-15T07:09:11;99407.50;;;7.18;76.63
36248;BME280;22287;50.824;5.644;2023-01-15T07:11:39;99404.94;;;6.87;77.96
36248;BME280;22287;50.824;5.644;2023-01-15T07:14:23;99406.22;;;7.50;74.79
36248;BME280;22287;50.824;5.644;2023-01-15T07:16:51;99391.72;;;6.46;78.40
36248;BME280;22287;50.824;5.644;2023-01-15T07:19:18;99404.41;;;6.14;79.50
36248;BME280;22287;50.824;5.644;2023-01-15T07:21:46;99398.59;;;6.39;78.64
36248;BME280;22287;50.824;5.644;2023-01-15T07:24:16;99397.56;;;7.18;75.37
36248;BME280;22287;50.824;5.644;2023-01-15T07:26:43;99402.13;;;7.27;74.47
36248;BME280;22287;50.824;5.644;2023-01-15T07:29:12;99410.28;;;7.54;73.75
36248;BME280;22287;50.824;5.644;2023-01-15T07:31:39;99424.16;;;7.79;72.71
36248;BME280;22287;50.824;5.644;2023-01-15T07:34:07;99429.25;;;7.72;72.14
36248;BME280;22287;50.824;5.644;2023-01-15T07:36:34;99421.47;;;7.69;72.83
36248;BME280;22287;50.824;5.644;2023-01-15T07:39:03;99422.56;;;6.71;77.02
36248;BME280;22287;50.824;5.644;2023-01-15T07:41:30;99431.75;;;6.38;78.59
36248;BME280;22287;50.824;5.644;2023-01-15T07:44:16;99433.38;;;6.50;78.35
36248;BME280;22287;50.824;5.644;2023-01-15T07:47:01;99433.19;;;6.91;77.33
36248;BME280;22287;50.824;5.644;2023-01-15T07:49:48;99432.59;;;6.88;77.75
36248;BME280;22287;50.824;5.644;2023-01-15T07:52:33;99437.59;;;7.12;76.14
36248;BME280;22287;50.824;5.644;2023-01-15T07:55:00;99451.13;;;6.81;76.39
36248;BME280;22287;50.824;5.644;2023-01-15T07:57:27;99452.38;;;6.77;76.39
36248;BME280;22287;50.824;5.644;2023-01-15T07:59:54;99461.06;;;6.60;76.11
36248;BME280;22287;50.824;5.644;2023-01-15T08:02:21;99454.84;;;6.50;77.04
36248;BME280;22287;50.824;5.644;2023-01-15T08:04:48;99451.34;;;6.69;76.56
36248;BME280;22287;50.824;5.644;2023-01-15T08:07:15;99452.34;;;6.28;76.54
36248;BME280;22287;50.824;5.644;2023-01-15T08:09:42;99453.34;;;6.27;77.77
36248;BME280;22287;50.824;5.644;2023-01-15T08:12:10;99460.97;;;6.71;75.59
36248;BME280;22287;50.824;5.644;2023-01-15T08:14:56;99465.38;;;6.72;75.40
36248;BME280;22287;50.824;5.644;2023-01-15T08:17:51;99478.88;;;6.52;75.39
36248;BME280;22287;50.824;5.644;2023-01-15T08:20:20;99475.97;;;6.43;75.64
36248;BME280;22287;50.824;5.644;2023-01-15T08:22:47;99481.31;;;6.64;74.28
36248;BME280;22287;50.824;5.644;2023-01-15T08:25:17;99486.47;;;6.86;74.18
36248;BME280;22287;50.824;5.644;2023-01-15T08:27:44;99484.53;;;6.58;74.17
36248;BME280;22287;50.824;5.644;2023-01-15T08:30:14;99487.00;;;6.80;73.36
36248;BME280;22287;50.824;5.644;2023-01-15T08:32:41;99489.03;;;6.58;73.82
36248;BME280;22287;50.824;5.644;2023-01-15T08:35:09;99502.31;;;5.99;75.79
36248;BME280;22287;50.824;5.644;2023-01-15T08:37:40;99493.19;;;6.31;75.01
36248;BME280;22287;50.824;5.644;2023-01-15T08:40:09;99499.13;;;6.35;75.04
36248;BME280;22287;50.824;5.644;2023-01-15T08:42:36;99487.38;;;6.06;75.11
36248;BME280;22287;50.824;5.644;2023-01-15T08:45:04;99480.16;;;6.27;74.70
36248;BME280;22287;50.824;5.644;2023-01-15T08:47:34;99471.34;;;6.45;74.28
36248;BME280;22287;50.824;5.644;2023-01-15T08:50:04;99469.81;;;6.53;73.69
36248;BME280;22287;50.824;5.644;2023-01-15T08:52:32;99467.47;;;6.29;74.79
36248;BME280;22287;50.824;5.644;2023-01-15T08:54:58;99459.66;;;6.56;73.21
36248;BME280;22287;50.824;5.644;2023-01-15T08:57:25;99468.53;;;6.47;72.63
36248;BME280;22287;50.824;5.644;2023-01-15T08:59:52;99473.84;;;6.07;74.62
36248;BME280;22287;50.824;5.644;2023-01-15T09:02:22;99451.47;;;5.97;75.53
36248;BME280;22287;50.824;5.644;2023-01-15T09:04:49;99468.50;;;6.37;73.94
36248;BME280;22287;50.824;5.644;2023-01-15T09:07:18;99467.28;;;6.51;73.64
36248;BME280;22287;50.824;5.644;2023-01-15T09:09:44;99466.44;;;6.60;73.79
36248;BME280;22287;50.824;5.644;2023-01-15T09:12:11;99472.66;;;6.51;74.19
36248;BME280;22287;50.824;5.644;2023-01-15T09:14:39;99471.22;;;6.47;73.88
36248;BME280;22287;50.824;5.644;2023-01-15T09:17:21;99480.56;;;5.81;76.02
36248;BME280;22287;50.824;5.644;2023-01-15T09:19:48;99472.88;;;5.87;76.27
36248;BME280;22287;50.824;5.644;2023-01-15T09:22:18;99474.81;;;6.06;74.83
36248;BME280;22287;50.824;5.644;2023-01-15T09:24:44;99485.03;;;5.91;75.36
36248;BME280;22287;50.824;5.644;2023-01-15T09:27:12;99475.34;;;6.51;73.63
36248;BME280;22287;50.824;5.644;2023-01-15T09:29:54;99469.69;;;6.54;73.93
36248;BME280;22287;50.824;5.644;2023-01-15T09:32:34;99459.56;;;6.67;72.82
36248;BME280;22287;50.824;5.644;2023-01-15T09:35:01;99462.78;;;6.52;73.96
36248;BME280;22287;50.824;5.644;2023-01-15T09:37:37;99474.25;;;6.33;74.23
36248;BME280;22287;50.824;5.644;2023-01-15T09:40:05;99485.53;;;6.27;74.49
36248;BME280;22287;50.824;5.644;2023-01-15T09:42:43;99488.22;;;6.57;73.75
36248;BME280;22287;50.824;5.644;2023-01-15T09:45:25;99506.91;;;6.68;72.41
36248;BME280;22287;50.824;5.644;2023-01-15T09:56:33;99500.03;;;6.45;72.63
36248;BME280;22287;50.824;5.644;2023-01-15T09:59:11;99507.47;;;6.41;73.57
36248;BME280;22287;50.824;5.644;2023-01-15T10:01:41;99508.66;;;6.88;71.99
36248;BME280;22287;50.824;5.644;2023-01-15T10:06:49;99511.34;;;6.48;72.32
36248;BME280;22287;50.824;5.644;2023-01-15T10:09:24;99503.50;;;6.66;72.00
36248;BME280;22287;50.824;5.644;2023-01-15T10:17:47;99520.63;;;6.75;71.78
36248;BME280;22287;50.824;5.644;2023-01-15T10:20:16;99531.59;;;6.62;73.19
36248;BME280;22287;50.824;5.644;2023-01-15T10:25:32;99527.25;;;6.71;72.53
36248;BME280;22287;50.824;5.644;2023-01-15T10:28:11;99524.41;;;6.63;73.30
36248;BME280;22287;50.824;5.644;2023-01-15T10:30:53;99524.16;;;6.75;72.70
36248;BME280;22287;50.824;5.644;2023-01-15T10:36:20;99534.19;;;6.73;73.23
36248;BME280;22287;50.824;5.644;2023-01-15T10:41:29;99533.53;;;6.90;73.07
36248;BME280;22287;50.824;5.644;2023-01-15T10:46:35;99527.66;;;6.66;73.05
36248;BME280;22287;50.824;5.644;2023-01-15T10:49:13;99525.28;;;6.73;72.40
36248;BME280;22287;50.824;5.644;2023-01-15T10:51:46;99538.13;;;6.69;72.42
36248;BME280;22287;50.824;5.644;2023-01-15T10:56:52;99524.22;;;6.94;71.89
36248;BME280;22287;50.824;5.644;2023-01-15T11:02:32;99539.66;;;6.62;72.63
36248;BME280;22287;50.824;5.644;2023-01-15T11:05:00;99531.97;;;6.58;72.41
36248;BME280;22287;50.824;5.644;2023-01-15T11:07:36;99530.22;;;6.77;72.22
36248;BME280;22287;50.824;5.644;2023-01-15T11:10:20;99516.25;;;6.74;71.45
36248;BME280;22287;50.824;5.644;2023-01-15T11:15:58;99518.47;;;6.69;72.72
36248;BME280;22287;50.824;5.644;2023-01-15T11:18:45;99530.91;;;6.39;73.35
36248;BME280;22287;50.824;5.644;2023-01-15T11:21:31;99524.44;;;6.72;72.52
36248;BME280;22287;50.824;5.644;2023-01-15T11:23:58;99507.78;;;6.78;71.64
36248;BME280;22287;50.824;5.644;2023-01-15T11:26:30;99501.31;;;6.90;71.15
36248;BME280;22287;50.824;5.644;2023-01-15T11:29:00;99511.31;;;6.79;72.22
36248;BME280;22287;50.824;5.644;2023-01-15T11:31:38;99516.75;;;6.58;71.46
36248;BME280;22287;50.824;5.644;2023-01-15T11:34:17;99505.47;;;6.64;72.12
36248;BME280;22287;50.824;5.644;2023-01-15T11:36:47;99494.75;;;6.34;73.16
36248;BME280;22287;50.824;5.644;2023-01-15T11:39:25;99489.59;;;6.52;72.52
36248;BME280;22287;50.824;5.644;2023-01-15T11:42:03;99490.56;;;6.90;72.09
36248;BME280;22287;50.824;5.644;2023-01-15T11:44:54;99491.03;;;6.95;71.57
36248;BME280;22287;50.824;5.644;2023-01-15T11:47:52;99488.03;;;6.89;71.71
36248;BME280;22287;50.824;5.644;2023-01-15T11:51:08;99493.72;;;6.95;71.67
36248;BME280;22287;50.824;5.644;2023-01-15T11:53:51;99510.09;;;7.02;71.29
36248;BME280;22287;50.824;5.644;2023-01-15T11:56:23;99511.13;;;7.10;71.74
36248;BME280;22287;50.824;5.644;2023-01-15T11:59:02;99496.81;;;7.00;71.41
36248;BME280;22287;50.824;5.644;2023-01-15T12:01:36;99505.78;;;7.49;70.45
36248;BME280;22287;50.824;5.644;2023-01-15T12:04:24;99492.34;;;7.30;71.05
36248;BME280;22287;50.824;5.644;2023-01-15T12:06:53;99499.16;;;7.53;69.46
36248;BME280;22287;50.824;5.644;2023-01-15T12:09:40;99500.97;;;7.33;70.59
36248;BME280;22287;50.824;5.644;2023-01-15T12:12:29;99499.97;;;7.15;70.27
36248;BME280;22287;50.824;5.644;2023-01-15T12:18:22;99502.25;;;7.48;69.88
36248;BME280;22287;50.824;5.644;2023-01-15T12:26:34;99497.59;;;7.41;69.33
36248;BME280;22287;50.824;5.644;2023-01-15T12:31:53;99477.09;;;7.40;69.50
36248;BME280;22287;50.824;5.644;2023-01-15T12:37:40;99460.69;;;7.43;69.28
36248;BME280;22287;50.824;5.644;2023-01-15T12:42:45;99475.53;;;7.47;68.51
36248;BME280;22287;50.824;5.644;2023-01-15T12:45:47;99455.84;;;7.65;68.56
36248;BME280;22287;50.824;5.644;2023-01-15T12:48:20;99470.84;;;7.58;69.07
36248;BME280;22287;50.824;5.644;2023-01-15T12:50:51;99474.81;;;7.54;67.91
36248;BME280;22287;50.824;5.644;2023-01-15T12:53:42;99473.09;;;7.82;68.30
36248;BME280;22287;50.824;5.644;2023-01-15T12:56:46;99481.75;;;7.57;68.82
36248;BME280;22287;50.824;5.644;2023-01-15T12:59:38;99470.16;;;7.28;68.97
36248;BME280;22287;50.824;5.644;2023-01-15T13:04:56;99478.59;;;7.14;68.77
36248;BME280;22287;50.824;5.644;2023-01-15T13:07:36;99488.41;;;7.34;69.44
36248;BME280;22287;50.824;5.644;2023-01-15T13:10:14;99493.78;;;7.53;68.29
36248;BME280;22287;50.824;5.644;2023-01-15T13:12:42;99484.66;;;6.96;68.85
36248;BME280;22287;50.824;5.644;2023-01-15T13:15:14;99487.75;;;7.01;67.92
36248;BME280;22287;50.824;5.644;2023-01-15T13:18:14;99485.13;;;7.21;68.83
36248;BME280;22287;50.824;5.644;2023-01-15T13:20:49;99491.50;;;7.20;69.01
36248;BME280;22287;50.824;5.644;2023-01-15T13:33:45;99481.06;;;7.64;66.66
36248;BME280;22287;50.824;5.644;2023-01-15T13:36:29;99501.66;;;7.06;68.68
36248;BME280;22287;50.824;5.644;2023-01-15T13:39:00;99517.19;;;7.13;68.15
36248;BME280;22287;50.824;5.644;2023-01-15T13:41:31;99506.31;;;7.14;68.04
36248;BME280;22287;50.824;5.644;2023-01-15T13:44:22;99512.94;;;7.10;67.88
36248;BME280;22287;50.824;5.644;2023-01-15T13:46:59;99505.94;;;7.38;67.34
36248;BME280;22287;50.824;5.644;2023-01-15T13:49:39;99509.78;;;7.45;67.28
36248;BME280;22287;50.824;5.644;2023-01-15T13:52:20;99504.50;;;7.15;67.50
36248;BME280;22287;50.824;5.644;2023-01-15T13:54:48;99506.31;;;7.24;67.25
36248;BME280;22287;50.824;5.644;2023-01-15T13:59:49;99505.78;;;7.30;68.51
36248;BME280;22287;50.824;5.644;2023-01-15T14:02:31;99518.25;;;6.81;69.17
36248;BME280;22287;50.824;5.644;2023-01-15T14:05:12;99521.75;;;7.12;67.98
36248;BME280;22287;50.824;5.644;2023-01-15T14:07:44;99515.25;;;7.15;68.61
36248;BME280;22287;50.824;5.644;2023-01-15T14:18:03;99508.97;;;6.95;68.40
36248;BME280;22287;50.824;5.644;2023-01-15T14:35:33;99506.75;;;7.09;68.11
36248;BME280;22287;50.824;5.644;2023-01-15T14:38:06;99510.38;;;6.99;68.57
36248;BME280;22287;50.824;5.644;2023-01-15T14:40:55;99511.66;;;7.04;68.02
36248;BME280;22287;50.824;5.644;2023-01-15T14:43:27;99513.28;;;7.36;67.46
36248;BME280;22287;50.824;5.644;2023-01-15T14:46:14;99514.78;;;7.00;68.01
36248;BME280;22287;50.824;5.644;2023-01-15T14:48:47;99523.44;;;7.32;67.74
36248;BME280;22287;50.824;5.644;2023-01-15T14:51:33;99525.09;;;6.95;68.99
36248;BME280;22287;50.824;5.644;2023-01-15T14:54:14;99524.16;;;7.15;68.51
36248;BME280;22287;50.824;5.644;2023-01-15T14:56:49;99521.06;;;6.80;68.78
36248;BME280;22287;50.824;5.644;2023-01-15T14:59:45;99514.38;;;7.14;68.41
36248;BME280;22287;50.824;5.644;2023-01-15T15:02:19;99512.97;;;7.29;67.66
36248;BME280;22287;50.824;5.644;2023-01-15T15:04:53;99515.91;;;7.07;68.80
36248;BME280;22287;50.824;5.644;2023-01-15T15:07:26;99510.41;;;7.18;68.01
36248;BME280;22287;50.824;5.644;2023-01-15T15:10:20;99509.44;;;7.09;67.71
36248;BME280;22287;50.824;5.644;2023-01-15T15:12:57;99516.22;;;7.04;68.29
36248;BME280;22287;50.824;5.644;2023-01-15T15:16:00;99516.44;;;6.91;68.64
36248;BME280;22287;50.824;5.644;2023-01-15T15:18:42;99519.06;;;6.72;69.63
36248;BME280;22287;50.824;5.644;2023-01-15T15:21:22;99520.97;;;6.91;69.32
36248;BME280;22287;50.824;5.644;2023-01-15T15:26:37;99514.06;;;7.07;68.38
36248;BME280;22287;50.824;5.644;2023-01-15T15:31:56;99520.63;;;6.75;70.18
36248;BME280;22287;50.824;5.644;2023-01-15T15:34:29;99511.50;;;6.87;69.09
36248;BME280;22287;50.824;5.644;2023-01-15T15:37:02;99502.34;;;7.08;68.30
36248;BME280;22287;50.824;5.644;2023-01-15T15:39:50;99505.13;;;6.88;68.59